Terminal Aerodrome Forecast
Issued by NWS

Current Version | Previous Version | Graphics & Text | Print | Product List | Glossary On
Versions: 1 2 3 4 5 6 7 8 9 10 11 12 13 14 15 16 17 18 19 20 21 22 23 24 25 26 27 28 29 30 31 32
207
FTUS41 KRNK 082320
TAFLWB
TAF
KLWB 082320Z 0900/0924 32006KT P6SM SCT250
     FM090300 29010G19KT P6SM -SHSN BKN030
      TEMPO 0910/0912 4SM -SHSN OVC020
     FM091600 30011G20KT P6SM SCT040=

USA.gov is the U.S. government's official web portal to all federal, state and local government web resources and services.